createdAt,value
2018-10-02T00:01:25.217Z,9.41
2018-10-02T00:03:55.681Z,9.45
2018-10-02T00:06:25.290Z,9.41
2018-10-02T00:08:55.873Z,9.40
2018-10-02T00:11:30.555Z,9.40
2018-10-02T00:14:05.523Z,9.42
2018-10-02T00:16:34.975Z,9.38
2018-10-02T00:19:04.314Z,9.39
2018-10-02T00:21:33.866Z,9.51
2018-10-02T00:24:04.176Z,9.50
2018-10-02T00:26:33.590Z,9.49
2018-10-02T00:29:03.774Z,9.46
2018-10-02T00:31:33.285Z,9.44
2018-10-02T00:34:03.263Z,9.42
2018-10-02T00:36:33.833Z,9.43
2018-10-02T00:39:03.844Z,9.45
2018-10-02T00:41:33.225Z,9.40
2018-10-02T00:44:02.680Z,9.38
2018-10-02T00:46:32.138Z,9.38
2018-10-02T00:49:01.873Z,9.33
2018-10-02T00:51:32.488Z,9.34
2018-10-02T00:54:02.283Z,9.32
2018-10-02T00:56:32.040Z,9.28
2018-10-02T00:59:01.550Z,9.29
2018-10-02T01:01:31.538Z,9.28
2018-10-02T01:04:00.913Z,9.28
2018-10-02T01:06:30.789Z,9.26
2018-10-02T01:09:00.317Z,9.32
2018-10-02T01:11:29.998Z,9.27
2018-10-02T01:14:00.732Z,9.27
2018-10-02T01:16:30.346Z,9.25
2018-10-02T01:18:59.751Z,9.25
2018-10-02T01:21:29.456Z,9.17
2018-10-02T01:23:59.289Z,9.12
2018-10-02T01:26:28.894Z,9.12
2018-10-02T01:28:58.467Z,9.14
2018-10-02T01:31:28.879Z,9.14
2018-10-02T01:33:58.449Z,9.14
2018-10-02T01:36:27.911Z,9.14
2018-10-02T01:38:58.029Z,9.14
2018-10-02T01:41:28.584Z,9.14
2018-10-02T01:43:58.348Z,9.18
2018-10-02T01:46:27.879Z,9.20
2018-10-02T01:48:57.628Z,9.20
2018-10-02T01:51:28.039Z,9.17
2018-10-02T01:53:57.481Z,9.15
2018-10-02T01:56:28.107Z,9.15
2018-10-02T01:58:58.684Z,9.15
2018-10-02T02:01:28.354Z,9.15
2018-10-02T02:03:57.875Z,9.15
2018-10-02T02:06:27.274Z,9.19
2018-10-02T02:08:56.679Z,9.20
2018-10-02T02:11:26.184Z,9.19
2018-10-02T02:13:55.734Z,9.19
2018-10-02T02:16:25.197Z,9.17
2018-10-02T02:18:55.033Z,9.16
2018-10-02T02:21:24.206Z,9.19
2018-10-02T02:23:53.932Z,9.17
2018-10-02T02:26:23.771Z,9.18
2018-10-02T02:28:54.228Z,9.16
2018-10-02T02:31:23.800Z,9.13
2018-10-02T02:33:54.310Z,9.11
2018-10-02T02:36:24.638Z,9.11
2018-10-02T02:38:54.238Z,9.12
2018-10-02T02:41:24.846Z,9.16
2018-10-02T02:43:54.810Z,9.19
2018-10-02T02:46:25.213Z,9.20
2018-10-02T02:48:59.737Z,9.21
2018-10-02T02:51:33.037Z,9.19
2018-10-02T02:54:03.967Z,9.26
2018-10-02T02:56:33.538Z,9.24
2018-10-02T02:59:03.142Z,9.27
2018-10-02T03:01:32.835Z,9.27
2018-10-02T03:04:03.730Z,9.29
2018-10-02T03:06:33.995Z,9.29
2018-10-02T03:09:03.461Z,9.28
2018-10-02T03:11:33.171Z,9.31
2018-10-02T03:14:02.814Z,9.39
2018-10-02T03:16:33.709Z,9.32
2018-10-02T03:19:03.460Z,9.32
2018-10-02T03:21:32.955Z,9.31
2018-10-02T03:24:02.476Z,9.31
2018-10-02T03:26:32.588Z,9.32
2018-10-02T03:29:08.641Z,9.32
2018-10-02T03:31:38.292Z,9.38
2018-10-02T03:34:09.343Z,9.38
2018-10-02T03:36:40.068Z,9.35
2018-10-02T03:39:09.932Z,9.39
2018-10-02T03:41:39.891Z,9.35
2018-10-02T03:44:09.500Z,9.35
2018-10-02T03:46:39.312Z,9.38
2018-10-02T03:49:09.675Z,9.42
2018-10-02T03:51:40.430Z,9.42
2018-10-02T03:54:10.580Z,9.43
2018-10-02T03:56:40.256Z,9.46
2018-10-02T03:59:10.077Z,9.46
2018-10-02T04:01:39.714Z,9.46
2018-10-02T04:04:09.445Z,9.43
2018-10-02T04:06:39.811Z,9.43
2018-10-02T04:09:10.850Z,9.48
2018-10-02T04:11:41.168Z,9.52
2018-10-02T04:14:10.621Z,9.56
2018-10-02T04:16:40.409Z,9.56
2018-10-02T04:19:10.276Z,9.55
2018-10-02T04:21:41.047Z,9.57
2018-10-02T04:24:10.732Z,9.58
2018-10-02T04:26:40.976Z,9.60
2018-10-02T04:29:11.218Z,9.60
2018-10-02T04:31:41.612Z,9.61
2018-10-02T04:34:11.203Z,9.61
2018-10-02T04:36:40.572Z,9.63
2018-10-02T04:39:10.053Z,9.65
2018-10-02T04:41:39.621Z,9.64
2018-10-02T04:44:09.473Z,9.68
2018-10-02T04:46:40.345Z,9.71
2018-10-02T04:49:09.774Z,9.70
2018-10-02T04:51:40.108Z,9.77
2018-10-02T04:54:09.640Z,9.78
2018-10-02T04:56:39.031Z,9.81
2018-10-02T04:59:09.520Z,9.79
2018-10-02T05:01:38.920Z,9.82
2018-10-02T05:04:08.326Z,9.83
2018-10-02T05:06:38.138Z,9.84
2018-10-02T05:09:09.131Z,9.86
2018-10-02T05:11:39.026Z,9.91
2018-10-02T05:14:09.382Z,9.91
2018-10-02T05:16:38.918Z,9.94
2018-10-02T05:19:08.435Z,9.99
2018-10-02T05:21:39.236Z,9.98
2018-10-02T05:24:08.844Z,9.97
2018-10-02T05:26:38.894Z,10.01
2018-10-02T05:29:12.534Z,10.02
2018-10-02T05:31:42.003Z,10.03
2018-10-02T05:34:11.768Z,10.04
2018-10-02T05:36:41.891Z,10.07
2018-10-02T05:39:11.615Z,10.10
2018-10-02T05:41:41.968Z,10.11
2018-10-02T05:44:12.221Z,10.14
2018-10-02T05:46:42.208Z,10.13
2018-10-02T05:49:18.657Z,10.16
2018-10-02T05:51:49.609Z,10.18
2018-10-02T05:54:20.498Z,10.20
2018-10-02T05:56:50.565Z,10.22
2018-10-02T05:59:20.423Z,10.26
2018-10-02T06:01:54.433Z,10.22
2018-10-02T06:04:24.313Z,10.26
2018-10-02T06:06:55.093Z,10.27
2018-10-02T06:09:25.286Z,10.29
2018-10-02T06:11:55.725Z,10.33
2018-10-02T06:14:25.418Z,10.33
2018-10-02T06:16:55.775Z,10.34
2018-10-02T06:19:25.372Z,10.39
2018-10-02T06:21:54.767Z,10.41
2018-10-02T06:24:24.443Z,10.37
2018-10-02T06:26:54.065Z,10.36
2018-10-02T06:29:23.426Z,10.32
2018-10-02T06:31:53.232Z,10.30
2018-10-02T06:34:22.726Z,10.21
2018-10-02T06:36:56.986Z,10.11
2018-10-02T06:39:28.098Z,10.02
2018-10-02T06:41:59.619Z,9.97
2018-10-02T06:44:29.793Z,9.99
2018-10-02T06:46:59.146Z,9.91
2018-10-02T06:49:28.650Z,9.90
2018-10-02T06:52:06.032Z,10.00
2018-10-02T06:54:35.446Z,10.01
2018-10-02T06:57:05.131Z,10.04
2018-10-02T06:59:34.471Z,10.04
2018-10-02T07:02:05.054Z,10.09
2018-10-02T07:04:34.801Z,10.08
2018-10-02T07:07:04.225Z,10.10
2018-10-02T07:09:33.920Z,10.17
2018-10-02T07:12:03.386Z,10.19
2018-10-02T07:14:33.232Z,10.26
2018-10-02T07:17:02.802Z,10.25
2018-10-02T07:19:32.969Z,10.25
2018-10-02T07:22:04.171Z,10.24
2018-10-02T07:24:33.787Z,10.25
2018-10-02T07:27:03.533Z,10.31
2018-10-02T07:29:33.220Z,10.31
2018-10-02T07:32:03.646Z,10.36
2018-10-02T07:34:32.969Z,10.38
2018-10-02T07:37:03.485Z,10.40
2018-10-02T07:39:33.209Z,10.46
2018-10-02T07:42:03.882Z,10.51
2018-10-02T07:44:33.273Z,10.56
2018-10-02T07:47:02.981Z,10.56
2018-10-02T07:49:32.829Z,10.55
2018-10-02T07:52:02.776Z,10.57
2018-10-02T07:54:32.425Z,10.59
2018-10-02T07:57:02.828Z,10.57
2018-10-02T07:59:32.405Z,10.56
2018-10-02T08:02:01.846Z,10.59
2018-10-02T08:04:31.505Z,10.60
2018-10-02T08:07:00.857Z,10.63
2018-10-02T08:09:30.203Z,10.63
2018-10-02T08:11:59.860Z,10.63
2018-10-02T08:14:30.211Z,10.64
2018-10-02T08:16:59.946Z,10.68
2018-10-02T08:19:29.590Z,10.66
2018-10-02T08:21:59.288Z,10.66
2018-10-02T08:24:29.238Z,10.68
2018-10-02T08:26:58.764Z,10.70
2018-10-02T08:29:29.244Z,10.69
2018-10-02T08:31:59.357Z,10.73
2018-10-02T08:34:28.884Z,10.79
2018-10-02T08:36:58.621Z,10.84
2018-10-02T08:39:28.192Z,10.87
2018-10-02T08:41:58.784Z,10.95
2018-10-02T08:44:28.157Z,10.98
2018-10-02T08:46:58.851Z,11.04
2018-10-02T08:49:29.547Z,11.11
2018-10-02T08:51:59.647Z,11.17
2018-10-02T08:54:29.849Z,11.19
2018-10-02T08:56:59.694Z,11.22
2018-10-02T08:59:29.300Z,11.25
2018-10-02T09:01:59.458Z,11.28
2018-10-02T09:04:30.307Z,11.27
2018-10-02T09:07:00.530Z,11.20
2018-10-02T09:09:30.154Z,11.08
2018-10-02T09:12:00.746Z,10.98
2018-10-02T09:14:30.528Z,10.87
2018-10-02T09:17:00.824Z,10.75
2018-10-02T09:19:30.809Z,10.63
2018-10-02T09:22:01.241Z,10.49
2018-10-02T09:24:31.137Z,10.40
2018-10-02T09:27:01.570Z,10.39
2018-10-02T09:29:31.038Z,10.30
2018-10-02T09:32:05.820Z,10.27
2018-10-02T09:34:42.256Z,10.13
2018-10-02T09:37:17.433Z,10.03
2018-10-02T09:39:53.334Z,10.00
2018-10-02T09:42:28.364Z,10.04
2018-10-02T09:44:57.681Z,10.01
2018-10-02T09:47:28.478Z,9.99
2018-10-02T09:49:57.990Z,10.02
2018-10-02T09:52:27.451Z,9.99
2018-10-02T09:54:57.055Z,9.95
2018-10-02T09:57:27.931Z,9.95
2018-10-02T09:59:57.789Z,9.95
2018-10-02T10:02:33.331Z,10.01
2018-10-02T10:05:03.256Z,9.97
2018-10-02T10:07:33.141Z,10.01
2018-10-02T10:10:03.699Z,10.10
2018-10-02T10:12:33.781Z,10.08
2018-10-02T10:15:04.533Z,10.09
2018-10-02T10:17:34.165Z,10.06
2018-10-02T10:20:03.749Z,10.03
2018-10-02T10:22:33.191Z,10.05
2018-10-02T10:25:02.808Z,10.03
2018-10-02T10:27:33.114Z,10.03
2018-10-02T10:30:02.836Z,10.10
2018-10-02T10:32:32.352Z,10.05
2018-10-02T10:35:02.755Z,10.07
2018-10-02T10:37:32.454Z,10.08
2018-10-02T10:40:02.043Z,10.09
2018-10-02T10:42:31.993Z,10.14
2018-10-02T10:45:02.349Z,10.15
2018-10-02T10:47:31.873Z,10.22
2018-10-02T10:50:01.621Z,10.23
2018-10-02T10:52:30.953Z,10.21
2018-10-02T10:55:11.841Z,10.25
2018-10-02T10:57:41.534Z,10.29
2018-10-02T11:00:10.970Z,10.31
2018-10-02T11:02:40.650Z,10.39
2018-10-02T11:05:13.361Z,10.48
2018-10-02T11:07:43.641Z,10.47
2018-10-02T11:10:14.636Z,10.53
2018-10-02T11:12:44.077Z,10.56
2018-10-02T11:15:14.347Z,10.57
2018-10-02T11:17:44.001Z,10.65
2018-10-02T11:20:15.991Z,10.68
2018-10-02T11:22:45.641Z,10.76
2018-10-02T11:25:15.216Z,10.77
2018-10-02T11:27:44.892Z,10.80
2018-10-02T11:30:15.190Z,10.87
2018-10-02T11:32:44.790Z,10.90
2018-10-02T11:35:14.288Z,11.01
2018-10-02T11:37:43.976Z,10.95
2018-10-02T11:40:13.468Z,10.97
2018-10-02T11:42:43.360Z,11.05
2018-10-02T11:45:13.005Z,11.08
2018-10-02T11:47:43.155Z,11.08
2018-10-02T11:50:12.955Z,11.08
2018-10-02T11:52:46.626Z,11.14
2018-10-02T11:55:16.483Z,11.15
2018-10-02T11:57:46.828Z,11.19
2018-10-02T12:00:16.961Z,11.19
2018-10-02T12:02:47.065Z,11.27
2018-10-02T12:05:16.401Z,11.35
2018-10-02T12:07:46.398Z,11.35
2018-10-02T12:10:16.037Z,11.42
2018-10-02T12:12:46.067Z,11.41
2018-10-02T12:15:22.352Z,11.45
2018-10-02T12:17:52.509Z,11.50
2018-10-02T12:20:21.940Z,11.56
2018-10-02T12:22:51.352Z,11.65
2018-10-02T12:25:21.472Z,11.71
2018-10-02T12:27:50.998Z,11.74
2018-10-02T12:30:21.071Z,11.82
2018-10-02T12:32:50.661Z,11.87
2018-10-02T12:35:21.141Z,11.94
2018-10-02T12:37:51.452Z,12.00
2018-10-02T12:40:21.180Z,12.03
2018-10-02T12:42:50.863Z,12.06
2018-10-02T12:45:20.638Z,12.07
2018-10-02T12:47:50.177Z,12.12
2018-10-02T12:50:20.273Z,12.12
2018-10-02T12:52:50.076Z,12.10
2018-10-02T12:55:19.478Z,12.17
2018-10-02T12:57:52.632Z,12.16
2018-10-02T13:00:22.739Z,12.18
2018-10-02T13:02:54.474Z,12.22
2018-10-02T13:05:24.280Z,12.34
2018-10-02T13:07:53.751Z,12.31
2018-10-02T13:10:24.280Z,12.31
2018-10-02T13:12:53.995Z,12.40
2018-10-02T13:15:23.493Z,12.41
2018-10-02T13:17:53.308Z,12.43
2018-10-02T13:20:23.101Z,12.46
2018-10-02T13:22:54.150Z,12.60
2018-10-02T13:25:23.717Z,12.57
2018-10-02T13:27:53.808Z,12.63
2018-10-02T13:30:23.184Z,12.74
2018-10-02T13:32:52.756Z,12.76
2018-10-02T13:35:24.287Z,12.78
2018-10-02T13:37:57.521Z,12.88
2018-10-02T13:40:27.063Z,12.86
2018-10-02T13:42:57.404Z,12.88
2018-10-02T13:45:26.782Z,12.91
2018-10-02T13:47:56.164Z,12.90
2018-10-02T13:50:25.761Z,12.92
2018-10-02T13:52:55.221Z,12.93
2018-10-02T13:55:24.617Z,12.94
2018-10-02T13:57:53.924Z,12.95
2018-10-02T14:00:23.507Z,12.98
2018-10-02T14:02:52.797Z,13.03
2018-10-02T14:05:22.419Z,13.05
2018-10-02T14:07:51.817Z,13.14
2018-10-02T14:10:21.672Z,13.30
2018-10-02T14:12:50.968Z,13.26
2018-10-02T14:15:20.690Z,13.31
2018-10-02T14:17:50.592Z,13.35
2018-10-02T14:20:22.238Z,13.36
2018-10-02T14:22:51.561Z,13.50
2018-10-02T14:25:21.455Z,13.56
2018-10-02T14:27:50.948Z,13.62
2018-10-02T14:30:20.358Z,13.72
2018-10-02T14:32:50.652Z,13.85
2018-10-02T14:35:20.208Z,13.99
2018-10-02T14:37:50.278Z,14.10
2018-10-02T14:40:20.835Z,14.12
2018-10-02T14:42:50.311Z,14.21
2018-10-02T14:45:19.687Z,14.24
2018-10-02T14:47:49.032Z,14.23
2018-10-02T14:50:18.496Z,14.23
2018-10-02T14:52:47.860Z,14.24
2018-10-02T14:55:17.180Z,14.28
2018-10-02T14:57:46.534Z,14.28
2018-10-02T15:00:15.853Z,14.45
2018-10-02T15:02:45.490Z,14.44
2018-10-02T15:05:14.878Z,14.49
2018-10-02T15:07:45.608Z,14.48
2018-10-02T15:10:14.818Z,14.50
2018-10-02T15:12:51.618Z,14.61
2018-10-02T15:15:20.850Z,14.59
2018-10-02T15:17:50.983Z,14.66
2018-10-02T15:20:20.210Z,14.79
2018-10-02T15:22:49.977Z,14.89
2018-10-02T15:25:19.541Z,15.03
2018-10-02T15:27:49.442Z,15.17
2018-10-02T15:30:19.018Z,15.17
2018-10-02T15:32:48.497Z,15.24
2018-10-02T15:35:17.812Z,15.24
2018-10-02T15:37:47.366Z,15.24
2018-10-02T15:40:16.780Z,15.24
2018-10-02T15:42:46.043Z,15.29
2018-10-02T15:45:15.871Z,15.34
2018-10-02T15:47:45.349Z,15.33
2018-10-02T15:50:15.889Z,15.39
2018-10-02T15:52:45.351Z,15.40
2018-10-02T15:55:15.255Z,15.37
2018-10-02T15:57:46.516Z,15.37
2018-10-02T16:00:16.353Z,15.41
2018-10-02T16:02:46.431Z,15.39
2018-10-02T16:05:16.288Z,15.44
2018-10-02T16:07:45.841Z,15.52
2018-10-02T16:10:15.413Z,15.49
2018-10-02T16:12:46.147Z,15.57
2018-10-02T16:15:19.939Z,15.56
2018-10-02T16:17:49.557Z,15.50
2018-10-02T16:20:19.135Z,15.49
2018-10-02T16:22:48.833Z,15.55
2018-10-02T16:25:18.893Z,15.52
2018-10-02T16:27:48.465Z,15.50
2018-10-02T16:30:18.113Z,15.47
2018-10-02T16:32:47.495Z,15.44
2018-10-02T16:35:17.164Z,15.42
2018-10-02T16:37:46.731Z,15.39
2018-10-02T16:40:16.138Z,15.37
2018-10-02T16:42:46.503Z,15.26
2018-10-02T16:45:15.958Z,15.22
2018-10-02T16:47:45.645Z,15.14
2018-10-02T16:50:15.088Z,15.14
2018-10-02T16:52:44.558Z,15.17
2018-10-02T16:55:14.091Z,15.12
2018-10-02T16:57:43.561Z,15.08
2018-10-02T17:00:13.106Z,15.02
2018-10-02T17:02:44.484Z,14.93
2018-10-02T17:05:15.081Z,15.01
2018-10-02T17:07:44.686Z,14.99
2018-10-02T17:10:14.310Z,14.98
2018-10-02T17:12:43.839Z,14.92
2018-10-02T17:15:14.329Z,14.91
2018-10-02T17:17:43.759Z,14.97
2018-10-02T17:20:13.096Z,14.87
2018-10-02T17:22:42.756Z,14.83
2018-10-02T17:25:12.189Z,14.72
2018-10-02T17:27:41.884Z,14.76
2018-10-02T17:30:11.793Z,14.74
2018-10-02T17:32:41.219Z,14.75
2018-10-02T17:35:11.472Z,14.63
2018-10-02T17:37:40.759Z,14.66
2018-10-02T17:40:13.058Z,14.61
2018-10-02T17:42:42.339Z,14.52
2018-10-02T17:45:12.212Z,14.61
2018-10-02T17:47:41.609Z,14.65
2018-10-02T17:50:11.376Z,14.68
2018-10-02T17:52:40.781Z,14.63
2018-10-02T17:55:10.354Z,14.65
2018-10-02T17:57:40.506Z,14.63
2018-10-02T18:00:10.069Z,14.57
2018-10-02T18:02:39.644Z,14.46
2018-10-02T18:05:10.642Z,14.37
2018-10-02T18:07:40.189Z,14.41
2018-10-02T18:10:11.470Z,14.34
2018-10-02T18:12:40.872Z,14.25
2018-10-02T18:15:10.940Z,14.25
2018-10-02T18:17:40.506Z,14.19
2018-10-02T18:20:09.977Z,14.17
2018-10-02T18:22:39.851Z,14.16
2018-10-02T18:25:09.231Z,14.09
2018-10-02T18:27:38.883Z,14.02
2018-10-02T18:30:09.482Z,13.99
2018-10-02T18:32:39.586Z,14.00
2018-10-02T18:35:09.288Z,14.07
2018-10-02T18:37:38.725Z,14.02
2018-10-02T18:40:08.504Z,14.06
2018-10-02T18:42:38.060Z,14.06
2018-10-02T18:45:07.738Z,14.18
2018-10-02T18:47:37.324Z,14.11
2018-10-02T18:50:07.987Z,14.15
2018-10-02T18:52:37.394Z,14.16
2018-10-02T18:55:06.940Z,14.19
2018-10-02T18:57:37.677Z,14.15
2018-10-02T19:00:09.392Z,14.15
2018-10-02T19:02:39.912Z,14.11
2018-10-02T19:05:09.640Z,14.13
2018-10-02T19:07:39.780Z,14.17
2018-10-02T19:10:09.485Z,14.18
2018-10-02T19:12:39.035Z,14.16
2018-10-02T19:15:09.581Z,14.05
2018-10-02T19:17:39.230Z,13.96
2018-10-02T19:20:13.951Z,13.98
2018-10-02T19:22:43.392Z,13.89
2018-10-02T19:25:18.683Z,13.94
2018-10-02T19:27:48.783Z,13.91
2018-10-02T19:30:23.620Z,13.95
2018-10-02T19:32:53.202Z,13.93
2018-10-02T19:35:22.652Z,13.92
2018-10-02T19:37:57.377Z,13.87
2018-10-02T19:40:27.444Z,13.80
2018-10-02T19:42:57.315Z,13.77
2018-10-02T19:45:33.138Z,13.82
2018-10-02T19:48:02.605Z,13.80
2018-10-02T19:50:31.927Z,13.85
2018-10-02T19:53:01.578Z,13.84
2018-10-02T19:55:32.326Z,13.87
2018-10-02T19:58:02.018Z,13.88
2018-10-02T20:00:31.693Z,13.91
2018-10-02T20:03:01.851Z,13.90
2018-10-02T20:05:32.420Z,13.87
2018-10-02T20:08:01.816Z,13.88
2018-10-02T20:10:32.583Z,13.87
2018-10-02T20:13:02.413Z,13.85
2018-10-02T20:15:31.936Z,13.81
2018-10-02T20:18:01.636Z,13.79
2018-10-02T20:20:31.339Z,13.78
2018-10-02T20:23:01.040Z,13.75
2018-10-02T20:25:30.757Z,13.68
2018-10-02T20:28:01.060Z,13.65
2018-10-02T20:30:32.163Z,13.63
2018-10-02T20:33:02.771Z,13.63
2018-10-02T20:35:32.325Z,13.62
2018-10-02T20:38:01.960Z,13.59
2018-10-02T20:40:32.179Z,13.58
2018-10-02T20:43:01.985Z,13.58
2018-10-02T20:45:31.524Z,13.59
2018-10-02T20:48:02.034Z,13.59
2018-10-02T20:50:31.281Z,13.59
2018-10-02T20:53:03.398Z,13.59
2018-10-02T20:55:33.010Z,13.60
2018-10-02T20:58:02.501Z,13.65
2018-10-02T21:00:32.347Z,13.64
2018-10-02T21:03:02.321Z,13.60
2018-10-02T21:05:31.929Z,13.64
2018-10-02T21:08:01.401Z,13.66
2018-10-02T21:10:31.078Z,13.66
2018-10-02T21:13:00.576Z,13.71
2018-10-02T21:15:30.435Z,13.69
2018-10-02T21:18:00.688Z,13.68
2018-10-02T21:20:30.340Z,13.73
2018-10-02T21:23:00.632Z,13.74
2018-10-02T21:25:29.989Z,13.77
2018-10-02T21:27:59.370Z,13.77
2018-10-02T21:30:28.683Z,13.76
2018-10-02T21:32:58.446Z,13.81
2018-10-02T21:35:28.407Z,13.88
2018-10-02T21:37:58.089Z,13.86
2018-10-02T21:40:27.535Z,13.89
2018-10-02T21:42:56.884Z,13.89
2018-10-02T21:45:26.306Z,14.04
2018-10-02T21:47:55.736Z,14.01
2018-10-02T21:50:25.660Z,13.99
2018-10-02T21:52:55.460Z,13.99
2018-10-02T21:55:24.931Z,13.95
2018-10-02T21:57:55.435Z,13.97
2018-10-02T22:00:25.358Z,13.99
2018-10-02T22:02:54.907Z,13.96
2018-10-02T22:05:24.403Z,13.96
2018-10-02T22:07:53.919Z,13.93
2018-10-02T22:10:23.501Z,13.91
2018-10-02T22:12:53.470Z,13.86
2018-10-02T22:15:24.050Z,13.93
2018-10-02T22:17:53.472Z,13.94
2018-10-02T22:20:23.282Z,13.93
2018-10-02T22:22:52.967Z,13.87
2018-10-02T22:25:22.335Z,13.91
2018-10-02T22:27:51.634Z,13.87
2018-10-02T22:30:21.097Z,13.96
2018-10-02T22:32:50.496Z,13.87
2018-10-02T22:35:20.100Z,13.85
2018-10-02T22:37:49.410Z,13.76
2018-10-02T22:40:19.622Z,13.68
2018-10-02T22:42:49.655Z,13.68
2018-10-02T22:45:19.294Z,13.63
2018-10-02T22:47:49.825Z,13.58
2018-10-02T22:50:19.089Z,13.58
2018-10-02T22:52:49.039Z,13.61
2018-10-02T22:55:18.484Z,13.65
2018-10-02T22:57:47.891Z,13.65
2018-10-02T23:00:17.552Z,13.63
2018-10-02T23:02:47.671Z,13.55
2018-10-02T23:05:17.939Z,13.64
2018-10-02T23:07:47.493Z,13.57
2018-10-02T23:10:17.360Z,13.55
2018-10-02T23:12:54.380Z,13.59
2018-10-02T23:15:24.531Z,13.64
2018-10-02T23:17:54.034Z,13.61
2018-10-02T23:20:23.467Z,13.60
2018-10-02T23:22:53.116Z,13.68
2018-10-02T23:25:22.689Z,13.70
2018-10-02T23:27:53.073Z,13.74
2018-10-02T23:30:22.652Z,13.75
2018-10-02T23:32:52.537Z,13.81
2018-10-02T23:35:22.202Z,13.80
2018-10-02T23:37:52.369Z,13.80
2018-10-02T23:40:21.885Z,13.88
2018-10-02T23:42:51.529Z,13.92
2018-10-02T23:45:21.121Z,13.98
2018-10-02T23:47:51.532Z,14.02
2018-10-02T23:50:21.327Z,13.99
2018-10-02T23:52:51.081Z,14.02
2018-10-02T23:55:20.578Z,14.02
2018-10-02T23:57:50.289Z,14.00
